Time;durP1;ratioP1;P1;durP2;ratioP2;P2;SDS_P1;SDS_P2;PMS_P1;PMS_P2;Temp;Humidity;BMP_temperature;BMP_pressure;BME280_temperature;BME280_humidity;BME280_pressure;Samples;Min_cycle;Max_cycle;Signal;HPM_P1;HPM_P2
2022/10/20 00:02:24;;;;;;;3.10;1.57;;;4.50;99.90;;;;;;5006016;28;20218;-78
2022/10/20 00:04:50;;;;;;;2.33;1.83;;;4.50;99.90;;;;;;4996993;28;20293;-78
2022/10/20 00:07:18;;;;;;;2.10;1.40;;;4.50;99.90;;;;;;4992749;28;20233;-78
2022/10/20 00:09:45;;;;;;;3.00;1.97;;;4.50;99.90;;;;;;5008081;28;20258;-78
2022/10/20 00:12:12;;;;;;;3.60;1.70;;;4.50;99.90;;;;;;5002431;28;20266;-78
2022/10/20 00:14:38;;;;;;;3.40;1.50;;;4.50;99.90;;;;;;5006107;28;20232;-79
2022/10/20 00:17:05;;;;;;;2.30;1.40;;;4.50;99.90;;;;;;4999257;28;20216;-77
2022/10/20 00:19:32;;;;;;;2.17;1.60;;;4.50;99.90;;;;;;5007604;28;20338;-78
2022/10/20 00:21:59;;;;;;;2.17;1.43;;;4.50;99.90;;;;;;4992288;28;20240;-79
2022/10/20 00:24:27;;;;;;;1.97;1.37;;;4.50;99.90;;;;;;5005413;28;20228;-79
2022/10/20 00:26:54;;;;;;;1.87;1.50;;;4.50;99.90;;;;;;5004466;28;20745;-78
2022/10/20 00:29:21;;;;;;;2.63;1.67;;;4.50;99.90;;;;;;5005732;28;20285;-79
2022/10/20 00:31:47;;;;;;;2.07;1.47;;;4.50;99.90;;;;;;5005494;28;20301;-78
2022/10/20 00:34:14;;;;;;;5.63;1.67;;;4.40;99.90;;;;;;5003369;28;20663;-77
2022/10/20 00:36:41;;;;;;;2.87;1.50;;;4.40;99.90;;;;;;5004578;28;20231;-79
2022/10/20 00:39:07;;;;;;;2.60;1.70;;;4.40;99.90;;;;;;5005275;28;20224;-79
2022/10/20 00:41:36;;;;;;;1.90;1.67;;;4.40;99.90;;;;;;4995964;28;20231;-81
2022/10/20 00:44:23;;;;;;;3.57;1.63;;;4.40;99.90;;;;;;5001126;28;20229;-79
2022/10/20 00:46:50;;;;;;;1.97;1.60;;;4.40;99.90;;;;;;5001010;28;20222;-80
2022/10/20 00:49:22;;;;;;;3.10;1.60;;;4.40;99.90;;;;;;5002809;28;20227;-78
2022/10/20 00:51:49;;;;;;;1.93;1.43;;;4.40;99.90;;;;;;5002968;28;20365;-79
2022/10/20 00:54:18;;;;;;;2.90;1.60;;;4.30;99.90;;;;;;5001889;28;20674;-79
2022/10/20 00:56:49;;;;;;;1.93;1.70;;;4.30;99.90;;;;;;5004215;28;20234;-79
2022/10/20 00:59:19;;;;;;;3.07;1.30;;;4.30;99.90;;;;;;4994558;28;20242;-79
2022/10/20 01:01:46;;;;;;;4.37;1.50;;;4.40;99.90;;;;;;5004260;28;20236;-78
2022/10/20 01:04:13;;;;;;;1.80;1.40;;;4.30;99.90;;;;;;5004970;28;20227;-78
2022/10/20 01:06:40;;;;;;;1.83;1.50;;;4.40;99.90;;;;;;5001393;28;20813;-78
2022/10/20 01:09:07;;;;;;;3.53;1.60;;;4.30;99.90;;;;;;5004894;28;20317;-78
2022/10/20 01:11:44;;;;;;;1.87;1.40;;;4.30;99.90;;;;;;5005774;28;20785;-78
2022/10/20 01:14:32;;;;;;;2.20;1.40;;;4.30;99.90;;;;;;4996330;28;20226;-78
2022/10/20 01:17:06;;;;;;;2.67;1.40;;;4.20;99.90;;;;;;5012908;28;20220;-77
2022/10/20 01:20:20;;;;;;;4.73;1.40;;;4.20;99.90;;;;;;5011148;28;20772;-77
2022/10/20 01:23:03;;;;;;;3.33;1.27;;;4.20;99.90;;;;;;4932415;29;20237;-78
2022/10/20 01:25:48;;;;;;;2.20;1.40;;;4.20;99.90;;;;;;4940486;29;20249;-79
2022/10/20 01:28:22;;;;;;;2.87;1.60;;;4.20;99.90;;;;;;4996021;28;20246;-78
2022/10/20 01:30:56;;;;;;;2.83;1.80;;;4.20;99.90;;;;;;5007502;28;20241;-79
2022/10/20 01:33:30;;;;;;;1.70;1.37;;;4.20;99.90;;;;;;5008061;28;20243;-79
2022/10/20 01:36:04;;;;;;;1.70;1.53;;;4.20;99.90;;;;;;5024556;28;20642;-79
2022/10/20 01:38:39;;;;;;;3.60;1.83;;;4.20;99.90;;;;;;4985616;28;20226;-80
2022/10/20 01:41:13;;;;;;;3.63;1.43;;;4.20;99.90;;;;;;4992440;28;20738;-78
2022/10/20 01:43:44;;;;;;;1.40;1.30;;;4.10;99.90;;;;;;5008429;28;20696;-78
2022/10/20 01:46:13;;;;;;;1.93;1.60;;;4.10;99.90;;;;;;5002959;28;20259;-79
2022/10/20 01:48:40;;;;;;;3.50;1.87;;;4.10;99.90;;;;;;5003318;28;20665;-80
2022/10/20 01:51:08;;;;;;;1.70;1.40;;;4.10;99.90;;;;;;5004200;28;20220;-79
2022/10/20 01:53:35;;;;;;;1.80;1.20;;;4.20;99.90;;;;;;5004305;28;20238;-78
2022/10/20 01:56:03;;;;;;;3.07;1.50;;;4.20;99.90;;;;;;5001628;28;20211;-79
2022/10/20 01:59:04;;;;;;;2.00;1.30;;;4.20;99.90;;;;;;4997275;28;20591;-79
2022/10/20 02:01:44;;;;;;;3.47;1.40;;;4.10;99.90;;;;;;5014351;28;20225;-78
2022/10/20 02:04:13;;;;;;;2.73;1.57;;;4.10;99.90;;;;;;5006185;28;20274;-77
2022/10/20 02:06:45;;;;;;;2.77;1.43;;;4.20;99.90;;;;;;5008291;28;20318;-78
2022/10/20 02:09:17;;;;;;;4.27;1.50;;;4.20;99.90;;;;;;5002292;28;20257;-78
2022/10/20 02:11:49;;;;;;;2.63;1.40;;;4.20;99.90;;;;;;4997211;28;20244;-78
2022/10/20 02:14:19;;;;;;;3.17;1.47;;;4.20;99.90;;;;;;4999927;28;20802;-78
2022/10/20 02:16:49;;;;;;;2.57;1.60;;;4.10;99.90;;;;;;5001546;28;20256;-79
2022/10/20 02:19:19;;;;;;;3.27;1.80;;;4.10;99.90;;;;;;5006525;28;20223;-79
2022/10/20 02:21:47;;;;;;;3.43;2.10;;;4.10;99.90;;;;;;5015684;28;20600;-78
2022/10/20 02:24:15;;;;;;;3.23;1.60;;;4.10;99.90;;;;;;5003037;28;20590;-78
2022/10/20 02:26:43;;;;;;;2.33;1.47;;;4.10;99.90;;;;;;5007148;28;20234;-78
2022/10/20 02:29:14;;;;;;;2.27;1.77;;;4.10;99.90;;;;;;5005569;28;20232;-78
2022/10/20 02:31:43;;;;;;;2.57;1.57;;;4.10;99.90;;;;;;5004055;28;20231;-78
2022/10/20 02:34:11;;;;;;;4.70;1.70;;;4.10;99.90;;;;;;4997009;28;20648;-78
2022/10/20 02:36:40;;;;;;;2.57;1.60;;;4.10;99.90;;;;;;5002188;28;20231;-77
2022/10/20 02:39:08;;;;;;;2.77;1.40;;;4.00;99.90;;;;;;5004498;28;20220;-78
2022/10/20 02:41:35;;;;;;;3.10;1.70;;;4.00;99.90;;;;;;5001922;28;20744;-77
2022/10/20 02:44:02;;;;;;;2.97;1.77;;;4.00;99.90;;;;;;5007678;28;20305;-79
2022/10/20 02:46:28;;;;;;;3.33;1.70;;;4.00;99.90;;;;;;4993295;28;20228;-78
2022/10/20 02:48:57;;;;;;;3.87;1.80;;;3.90;99.90;;;;;;4999504;28;20235;-78
2022/10/20 02:51:23;;;;;;;4.03;1.70;;;3.90;99.90;;;;;;5003989;28;20229;-78
2022/10/20 02:53:50;;;;;;;3.13;1.70;;;3.90;99.90;;;;;;4996650;28;20235;-79
2022/10/20 02:56:18;;;;;;;2.10;1.70;;;3.80;99.90;;;;;;4991433;28;20223;-79
2022/10/20 02:58:45;;;;;;;4.73;1.90;;;3.80;99.90;;;;;;5005341;28;20231;-79
2022/10/20 03:01:11;;;;;;;2.47;1.50;;;3.80;99.90;;;;;;5001710;28;20223;-80
2022/10/20 03:03:38;;;;;;;2.93;1.70;;;3.80;99.90;;;;;;5000208;28;20224;-80
2022/10/20 03:06:11;;;;;;;2.23;1.60;;;3.70;99.90;;;;;;4993028;28;20228;-80
2022/10/20 03:08:38;;;;;;;2.43;1.73;;;3.70;99.90;;;;;;4999800;28;20235;-80
2022/10/20 03:11:06;;;;;;;3.27;1.60;;;3.70;99.90;;;;;;5001810;28;20227;-78
2022/10/20 03:13:32;;;;;;;3.17;1.63;;;3.60;99.90;;;;;;5006669;28;20597;-77
2022/10/20 03:15:59;;;;;;;4.57;1.80;;;3.60;99.90;;;;;;5005507;28;20282;-78
2022/10/20 03:18:27;;;;;;;2.73;1.90;;;3.60;99.90;;;;;;5005054;28;20230;-78
2022/10/20 03:20:54;;;;;;;2.67;1.73;;;3.60;99.90;;;;;;5002385;28;20227;-78
2022/10/20 03:23:22;;;;;;;3.27;1.80;;;3.50;99.90;;;;;;5002847;28;20215;-78
2022/10/20 03:25:49;;;;;;;4.03;1.63;;;3.50;99.90;;;;;;5001482;28;20236;-78
2022/10/20 03:28:20;;;;;;;3.10;1.70;;;3.50;99.90;;;;;;4992589;28;20243;-79
2022/10/20 03:30:46;;;;;;;3.63;2.10;;;3.50;99.90;;;;;;4997042;28;20237;-79
2022/10/20 03:33:13;;;;;;;3.80;1.90;;;3.50;99.90;;;;;;4996989;28;20282;-78
2022/10/20 03:35:40;;;;;;;3.90;1.80;;;3.40;99.90;;;;;;5006348;28;20235;-78
2022/10/20 03:38:06;;;;;;;4.40;1.77;;;3.40;99.90;;;;;;4998136;28;20598;-78
2022/10/20 03:40:34;;;;;;;2.87;1.70;;;3.40;99.90;;;;;;5005422;28;20610;-78
2022/10/20 03:43:01;;;;;;;4.80;1.77;;;3.40;99.90;;;;;;4996876;28;20226;-78
2022/10/20 03:45:28;;;;;;;2.93;1.70;;;3.40;99.90;;;;;;4997598;28;20255;-77
2022/10/20 03:47:55;;;;;;;3.43;1.87;;;3.30;99.90;;;;;;5005986;28;20241;-78
2022/10/20 03:50:21;;;;;;;3.00;2.20;;;3.30;99.90;;;;;;5003864;28;20236;-79
2022/10/20 03:52:48;;;;;;;4.97;2.20;;;3.30;99.90;;;;;;5001991;28;20235;-78
2022/10/20 03:55:16;;;;;;;5.93;2.30;;;3.30;99.90;;;;;;5004775;28;20631;-78
2022/10/20 03:57:45;;;;;;;2.97;2.33;;;3.30;99.90;;;;;;5002238;28;20249;-78
2022/10/20 04:00:12;;;;;;;4.90;2.17;;;3.30;99.90;;;;;;5003870;28;20236;-78
2022/10/20 04:02:43;;;;;;;3.70;2.40;;;3.30;99.90;;;;;;4982931;28;20543;-77
2022/10/20 04:05:12;;;;;;;4.03;2.20;;;3.30;99.90;;;;;;5004445;28;20214;-80
2022/10/20 04:07:39;;;;;;;3.40;2.23;;;3.30;99.90;;;;;;5002004;28;20319;-79
2022/10/20 04:10:07;;;;;;;4.63;2.37;;;3.30;99.90;;;;;;5004875;28;20611;-79
2022/10/20 04:12:33;;;;;;;4.83;2.57;;;3.30;99.90;;;;;;5003109;28;20278;-79
2022/10/20 04:15:01;;;;;;;4.43;2.20;;;3.20;99.90;;;;;;5004375;28;20637;-79
2022/10/20 04:17:28;;;;;;;2.77;2.00;;;3.20;99.90;;;;;;4999156;28;20702;-79
2022/10/20 04:19:55;;;;;;;3.70;2.53;;;3.20;99.90;;;;;;4999890;28;20261;-79
2022/10/20 04:22:22;;;;;;;3.93;2.23;;;3.20;99.90;;;;;;5005308;28;20794;-77
2022/10/20 04:24:48;;;;;;;5.50;2.37;;;3.20;99.90;;;;;;5000894;28;20324;-77
2022/10/20 04:27:15;;;;;;;3.33;2.77;;;3.20;99.90;;;;;;4993374;28;20705;-77
2022/10/20 04:29:42;;;;;;;44.90;4.90;;;3.20;99.90;;;;;;5005868;28;20240;-78
2022/10/20 04:32:10;;;;;;;29.93;3.57;;;3.20;99.90;;;;;;5001883;28;20236;-77
2022/10/20 04:34:37;;;;;;;3.50;2.47;;;3.20;99.90;;;;;;5001270;28;20234;-77
2022/10/20 04:37:03;;;;;;;18.03;3.90;;;3.20;99.90;;;;;;5007968;28;20220;-76
2022/10/20 04:39:30;;;;;;;8.77;2.90;;;3.20;99.90;;;;;;5005378;28;20235;-78
2022/10/20 04:41:58;;;;;;;5.30;2.67;;;3.20;99.90;;;;;;5004315;28;20311;-76
2022/10/20 04:44:25;;;;;;;4.03;3.03;;;3.20;99.90;;;;;;4999455;28;20220;-77
2022/10/20 04:46:53;;;;;;;8.73;3.07;;;3.20;99.90;;;;;;4995095;28;20222;-77
2022/10/20 04:49:24;;;;;;;7.23;3.23;;;3.20;99.90;;;;;;5001970;28;20310;-77
2022/10/20 04:51:51;;;;;;;5.70;3.30;;;3.20;99.90;;;;;;5007928;28;20651;-78
2022/10/20 04:54:18;;;;;;;5.93;3.03;;;3.20;99.90;;;;;;5003089;28;20248;-77
2022/10/20 04:56:44;;;;;;;50.77;5.77;;;3.20;99.90;;;;;;5003235;28;20237;-77
2022/10/20 04:59:11;;;;;;;21.77;4.13;;;3.20;99.90;;;;;;5011177;28;20802;-78
2022/10/20 05:01:38;;;;;;;7.00;3.07;;;3.20;99.90;;;;;;5000891;28;20751;-77
2022/10/20 05:04:05;;;;;;;7.20;2.93;;;3.20;99.90;;;;;;5002427;28;20232;-77
2022/10/20 05:06:33;;;;;;;3.77;2.80;;;3.10;99.90;;;;;;5005886;28;20229;-77
2022/10/20 05:09:02;;;;;;;5.70;3.03;;;3.10;99.90;;;;;;5007905;28;20340;-76
2022/10/20 05:11:30;;;;;;;5.90;3.40;;;3.20;99.90;;;;;;5006624;28;20251;-76
2022/10/20 05:13:57;;;;;;;9.57;3.27;;;3.10;99.90;;;;;;5004706;28;20256;-76
2022/10/20 05:16:24;;;;;;;4.43;3.00;;;3.10;99.90;;;;;;4998248;23;20238;-92
2022/10/20 05:18:52;;;;;;;4.57;3.10;;;3.10;99.90;;;;;;4996862;28;20231;-94
2022/10/20 05:21:21;;;;;;;9.50;3.20;;;3.20;99.90;;;;;;4978021;28;20219;-90
2022/10/20 05:23:54;;;;;;;3.63;2.80;;;3.10;99.90;;;;;;5005819;28;20224;-91
2022/10/20 05:26:23;;;;;;;5.03;3.03;;;3.10;99.90;;;;;;4987944;28;20243;-91
2022/10/20 05:28:51;;;;;;;3.83;3.07;;;3.10;99.90;;;;;;5001322;28;20211;-92
2022/10/20 05:31:20;;;;;;;4.83;2.97;;;3.10;99.90;;;;;;4986500;28;20244;-93
2022/10/20 05:33:48;;;;;;;3.20;2.87;;;3.10;99.90;;;;;;4984104;28;20728;-91
2022/10/20 05:36:18;;;;;;;7.77;3.33;;;3.10;99.90;;;;;;4984736;28;20233;-90
2022/10/20 05:38:45;;;;;;;4.43;3.00;;;3.10;99.90;;;;;;4999681;28;20272;-91
2022/10/20 05:41:18;;;;;;;6.00;3.53;;;3.10;99.90;;;;;;4987122;28;20231;-92
2022/10/20 05:43:48;;;;;;;5.97;3.33;;;3.10;99.90;;;;;;4983961;28;20723;-90
2022/10/20 05:46:15;;;;;;;5.50;3.40;;;3.10;99.90;;;;;;4988791;28;20238;-92
2022/10/20 05:48:42;;;;;;;5.37;3.50;;;3.10;99.90;;;;;;4985782;28;20231;-95
2022/10/20 05:51:17;;;;;;;4.10;3.50;;;3.10;99.90;;;;;;4990609;28;20222;-93
2022/10/20 05:53:45;;;;;;;4.53;3.17;;;3.10;99.90;;;;;;5001502;28;20723;-94
2022/10/20 05:56:20;;;;;;;9.90;3.80;;;3.20;99.90;;;;;;4979284;28;20314;-89
2022/10/20 05:58:48;;;;;;;6.77;3.73;;;3.20;99.90;;;;;;4985006;28;20252;-91
2022/10/20 06:01:18;;;;;;;7.07;3.53;;;3.20;99.90;;;;;;4990654;28;20735;-94
2022/10/20 06:03:50;;;;;;;5.13;3.57;;;3.20;99.90;;;;;;4982609;28;20228;-92
2022/10/20 06:06:20;;;;;;;4.77;3.70;;;3.20;99.90;;;;;;4997777;28;20315;-94
2022/10/20 06:08:47;;;;;;;4.90;3.33;;;3.20;99.90;;;;;;4999291;28;20238;-92
2022/10/20 06:11:15;;;;;;;7.87;3.80;;;3.20;99.90;;;;;;4988982;28;20317;-90
2022/10/20 06:13:43;;;;;;;4.90;3.37;;;3.20;99.90;;;;;;4984443;28;20290;-90
2022/10/20 06:16:13;;;;;;;4.63;3.40;;;3.20;99.90;;;;;;4983089;28;20234;-93
2022/10/20 06:18:41;;;;;;;8.60;3.57;;;3.30;99.90;;;;;;4988364;28;20270;-90
2022/10/20 06:21:11;;;;;;;5.60;3.40;;;3.30;99.90;;;;;;4987001;28;20884;-90
2022/10/20 06:23:38;;;;;;;10.27;3.63;;;3.30;99.90;;;;;;4984699;28;20236;-91
2022/10/20 06:26:07;;;;;;;5.63;3.67;;;3.30;99.90;;;;;;4990687;28;20232;-91
2022/10/20 06:28:34;;;;;;;7.37;3.77;;;3.40;99.90;;;;;;4985407;28;20234;-92
2022/10/20 06:31:10;;;;;;;4.50;3.70;;;3.40;99.90;;;;;;4998764;28;20218;-90
2022/10/20 06:33:37;;;;;;;4.37;3.50;;;3.40;99.90;;;;;;4983806;28;20497;-91
2022/10/20 06:36:04;;;;;;;5.53;3.33;;;3.40;99.90;;;;;;4980711;28;20249;-90
2022/10/20 06:38:31;;;;;;;5.47;3.90;;;3.50;99.90;;;;;;4992645;28;20240;-91
2022/10/20 06:41:01;;;;;;;3.30;3.00;;;3.50;99.90;;;;;;4989222;28;20225;-91
2022/10/20 06:43:27;;;;;;;6.83;3.70;;;3.60;99.90;;;;;;4991033;28;20326;-91
2022/10/20 06:45:55;;;;;;;7.37;3.50;;;3.60;99.90;;;;;;4991091;28;20238;-91
2022/10/20 06:48:23;;;;;;;4.13;3.07;;;3.60;99.90;;;;;;4984183;28;20663;-90
2022/10/20 06:50:57;;;;;;;5.73;3.60;;;3.60;99.90;;;;;;4989351;28;20298;-90
2022/10/20 06:53:24;;;;;;;5.67;3.30;;;3.70;99.90;;;;;;4985182;28;20530;-90
2022/10/20 06:55:59;;;;;;;3.90;3.00;;;3.80;99.90;;;;;;4988324;28;20235;-91
2022/10/20 06:58:26;;;;;;;3.87;2.93;;;3.80;99.90;;;;;;5005744;28;20300;-90
2022/10/20 07:01:00;;;;;;;4.70;3.20;;;3.90;99.90;;;;;;4982937;28;20260;-91
2022/10/20 07:03:29;;;;;;;4.77;3.03;;;3.90;99.90;;;;;;4989632;28;20226;-92
2022/10/20 07:05:56;;;;;;;4.77;3.20;;;4.00;99.90;;;;;;5011437;28;20779;-90
2022/10/20 07:08:23;;;;;;;5.40;2.83;;;4.10;99.90;;;;;;4987029;28;20249;-91
2022/10/20 07:10:59;;;;;;;4.57;2.73;;;4.10;99.90;;;;;;4993650;28;20234;-90
2022/10/20 07:13:29;;;;;;;8.07;3.30;;;4.20;99.90;;;;;;4987948;28;20230;-90
2022/10/20 07:15:56;;;;;;;3.83;2.77;;;4.30;99.90;;;;;;4985689;28;20306;-90
2022/10/20 07:18:24;;;;;;;4.13;2.77;;;4.40;99.90;;;;;;4996742;28;20219;-90
2022/10/20 07:20:57;;;;;;;7.17;3.07;;;4.50;99.90;;;;;;4992354;28;20316;-91
2022/10/20 07:23:24;;;;;;;4.43;2.33;;;4.60;99.90;;;;;;4982340;28;20232;-92
2022/10/20 07:25:50;;;;;;;5.27;2.60;;;4.70;99.90;;;;;;4986602;28;20236;-91
2022/10/20 07:28:20;;;;;;;5.67;2.73;;;4.80;99.90;;;;;;4977760;28;20235;-90
2022/10/20 07:30:47;;;;;;;7.50;3.20;;;4.80;99.90;;;;;;4990829;28;20859;-91
2022/10/20 07:33:14;;;;;;;6.30;2.80;;;5.00;99.90;;;;;;4987476;28;20226;-90
2022/10/20 07:35:46;;;;;;;6.53;2.80;;;5.00;99.90;;;;;;4989705;28;20241;-91
2022/10/20 07:38:20;;;;;;;4.17;2.43;;;5.20;99.90;;;;;;4987668;28;20970;-91
2022/10/20 07:40:47;;;;;;;4.47;2.83;;;5.30;99.90;;;;;;4987069;28;20281;-92
2022/10/20 07:43:14;;;;;;;4.53;2.70;;;5.40;99.90;;;;;;4997320;28;20228;-91
2022/10/20 07:45:42;;;;;;;4.07;2.50;;;5.50;99.90;;;;;;4990692;28;20227;-91
2022/10/20 07:48:09;;;;;;;4.10;2.50;;;5.60;99.90;;;;;;4985770;28;20913;-91
2022/10/20 07:50:40;;;;;;;3.07;2.33;;;5.80;99.90;;;;;;4984256;28;20783;-90
2022/10/20 07:53:07;;;;;;;3.87;2.37;;;5.90;99.90;;;;;;4980901;28;20366;-91
2022/10/20 07:55:36;;;;;;;4.83;2.53;;;6.00;99.90;;;;;;4994127;28;20236;-91
2022/10/20 07:58:10;;;;;;;4.63;2.20;;;6.10;99.90;;;;;;4980281;28;20243;-90
2022/10/20 08:00:37;;;;;;;4.07;2.40;;;6.20;99.90;;;;;;4992413;28;20458;-90
2022/10/20 08:03:08;;;;;;;3.80;2.40;;;6.30;99.90;;;;;;4980144;28;20251;-91
2022/10/20 08:05:35;;;;;;;4.20;2.57;;;6.40;99.90;;;;;;4994450;28;20761;-93
2022/10/20 08:08:02;;;;;;;3.80;2.40;;;6.50;99.90;;;;;;5007255;28;20747;-90
2022/10/20 08:10:28;;;;;;;3.77;2.13;;;6.70;99.90;;;;;;4990650;28;20229;-91
2022/10/20 08:12:56;;;;;;;4.33;2.50;;;6.70;99.90;;;;;;4982213;28;20290;-89
2022/10/20 08:15:26;;;;;;;4.43;2.40;;;6.80;99.90;;;;;;4990857;28;20264;-90
2022/10/20 08:17:53;;;;;;;3.23;1.87;;;6.90;99.90;;;;;;5002984;28;20247;-91
2022/10/20 08:20:20;;;;;;;5.23;2.30;;;7.00;99.90;;;;;;4993992;28;20226;-90
2022/10/20 08:22:53;;;;;;;6.67;2.30;;;7.10;99.90;;;;;;4991015;28;20314;-92
2022/10/20 08:25:20;;;;;;;3.23;1.90;;;7.30;99.90;;;;;;4982883;28;20600;-90
2022/10/20 08:27:47;;;;;;;4.13;1.80;;;7.50;99.90;;;;;;4986927;28;20236;-92
2022/10/20 08:30:16;;;;;;;3.77;1.87;;;7.60;99.90;;;;;;4989058;28;20227;-92
2022/10/20 08:32:45;;;;;;;3.60;2.40;;;7.80;99.90;;;;;;4993127;28;20228;-92
2022/10/20 08:35:12;;;;;;;3.27;1.77;;;8.10;99.90;;;;;;4983061;28;20309;-91
2022/10/20 08:37:38;;;;;;;5.13;2.53;;;8.30;99.90;;;;;;4990625;28;20270;-90
2022/10/20 08:40:06;;;;;;;4.47;1.97;;;8.60;99.90;;;;;;4983561;28;20262;-92
2022/10/20 08:42:43;;;;;;;3.40;2.00;;;9.00;99.90;;;;;;4985771;28;20305;-91
2022/10/20 08:45:18;;;;;;;3.40;1.70;;;9.30;99.90;;;;;;4986198;28;20215;-91
2022/10/20 08:47:47;;;;;;;3.50;1.70;;;9.60;99.90;;;;;;4987819;28;20322;-91
2022/10/20 08:50:16;;;;;;;4.47;1.83;;;9.90;99.90;;;;;;4994088;28;21197;-88
2022/10/20 08:52:44;;;;;;;4.20;1.90;;;10.10;99.90;;;;;;4989111;28;20221;-89
2022/10/20 08:55:22;;;;;;;3.73;1.90;;;10.40;99.90;;;;;;4990108;28;20226;-88
2022/10/20 08:57:49;;;;;;;2.67;1.60;;;10.50;99.90;;;;;;4994700;28;20722;-88
2022/10/20 09:00:22;;;;;;;4.00;1.60;;;10.80;99.90;;;;;;4990763;28;20799;-88
2022/10/20 09:02:50;;;;;;;1.87;1.23;;;10.90;99.90;;;;;;4996320;28;20236;-88
2022/10/20 09:05:22;;;;;;;3.03;1.60;;;11.00;99.90;;;;;;4991358;28;20229;-87
2022/10/20 09:07:50;;;;;;;2.40;1.23;;;11.20;99.90;;;;;;4991651;28;20237;-88
2022/10/20 09:10:33;;;;;;;4.00;1.70;;;11.30;99.90;;;;;;4993065;28;20286;-88
2022/10/20 09:13:00;;;;;;;3.37;1.57;;;11.50;99.90;;;;;;4990213;28;20734;-87
2022/10/20 09:15:29;;;;;;;4.37;1.87;;;11.70;99.90;;;;;;5002743;28;20236;-88
2022/10/20 09:18:01;;;;;;;2.03;1.63;;;11.90;99.90;;;;;;4983414;28;20622;-89
2022/10/20 09:20:38;;;;;;;2.27;1.53;;;12.00;99.90;;;;;;5002509;28;20244;-88
2022/10/20 09:23:05;;;;;;;5.83;2.00;;;12.20;99.90;;;;;;4977548;28;20227;-88
2022/10/20 09:25:33;;;;;;;1.90;1.33;;;12.40;99.90;;;;;;4995654;28;20231;-88
2022/10/20 09:27:59;;;;;;;2.07;1.43;;;12.60;99.90;;;;;;4984262;28;20760;-89
2022/10/20 09:30:34;;;;;;;5.23;1.67;;;12.80;99.90;;;;;;4985279;28;20253;-88
2022/10/20 09:33:09;;;;;;;3.63;1.60;;;13.00;99.90;;;;;;4986712;28;20234;-88
2022/10/20 09:35:36;;;;;;;2.27;1.50;;;13.10;99.90;;;;;;4988412;28;20313;-88
2022/10/20 09:38:16;;;;;;;4.47;1.60;;;13.10;99.90;;;;;;4990788;28;20220;-88
2022/10/20 09:40:55;;;;;;;2.43;1.73;;;13.00;99.90;;;;;;5001174;28;20592;-88
2022/10/20 09:43:23;;;;;;;2.43;1.40;;;12.90;99.90;;;;;;4999725;28;20249;-87
2022/10/20 09:45:54;;;;;;;3.13;1.40;;;12.70;99.90;;;;;;4987793;28;20225;-88
2022/10/20 09:48:25;;;;;;;2.27;1.60;;;12.70;99.90;;;;;;4991365;28;20608;-88
2022/10/20 09:50:54;;;;;;;2.50;1.50;;;12.80;99.90;;;;;;4989180;28;20233;-87
2022/10/20 09:53:30;;;;;;;3.33;1.60;;;12.80;99.90;;;;;;4990710;28;20242;-88
2022/10/20 09:55:57;;;;;;;6.50;1.70;;;13.00;99.90;;;;;;5001388;28;20600;-88
2022/10/20 09:58:28;;;;;;;4.10;2.03;;;13.20;99.90;;;;;;5003508;28;21210;-89
2022/10/20 10:01:06;;;;;;;3.10;1.70;;;13.40;99.90;;;;;;4987273;28;20226;-92
2022/10/20 10:03:39;;;;;;;3.13;1.40;;;13.60;99.00;;;;;;4986766;28;20597;-91
2022/10/20 10:06:31;;;;;;;2.10;1.50;;;13.50;97.90;;;;;;4987381;28;20377;-92
2022/10/20 10:09:01;;;;;;;2.80;1.63;;;13.60;98.70;;;;;;5001785;28;20370;-90
2022/10/20 10:11:33;;;;;;;2.53;1.40;;;13.60;97.90;;;;;;4989538;28;20225;-91
2022/10/20 10:14:01;;;;;;;2.70;1.33;;;13.70;99.10;;;;;;4989958;28;20236;-91
2022/10/20 10:16:40;;;;;;;3.33;1.50;;;13.60;97.10;;;;;;4982748;28;20237;-91
2022/10/20 10:19:08;;;;;;;3.43;1.50;;;13.60;96.70;;;;;;4999271;28;20233;-90
2022/10/20 10:21:45;;;;;;;2.27;1.57;;;13.70;98.50;;;;;;5007640;28;20236;-91
2022/10/20 10:24:29;;;;;;;3.67;1.90;;;13.60;97.20;;;;;;4990161;28;20224;-91
2022/10/20 10:26:56;;;;;;;2.40;1.50;;;13.70;97.10;;;;;;5003856;28;20306;-90
2022/10/20 10:29:26;;;;;;;2.33;1.60;;;13.90;98.60;;;;;;4991568;28;20243;-90
2022/10/20 10:32:01;;;;;;;2.60;1.53;;;13.90;97.70;;;;;;4994045;28;20236;-92
2022/10/20 10:34:50;;;;;;;3.43;1.63;;;14.00;97.80;;;;;;5002554;28;20296;-93
2022/10/20 10:37:18;;;;;;;2.90;1.90;;;14.20;98.00;;;;;;5001579;28;20756;-91
2022/10/20 10:39:45;;;;;;;3.30;2.03;;;14.30;97.20;;;;;;5003792;28;20231;-91
2022/10/20 10:42:38;;;;;;;3.97;1.70;;;14.50;97.90;;;;;;4978246;28;20952;-90
2022/10/20 10:45:28;;;;;;;2.43;1.57;;;14.50;95.70;;;;;;4985994;28;20222;-92
2022/10/20 10:48:34;;;;;;;2.17;1.80;;;14.50;95.50;;;;;;5006888;28;20628;-91
2022/10/20 10:51:10;;;;;;;4.13;1.63;;;14.60;96.50;;;;;;4957317;28;20235;-91
2022/10/20 10:53:50;;;;;;;2.07;1.60;;;14.70;97.40;;;;;;4983318;28;20255;-91
2022/10/20 10:56:33;;;;;;;3.40;2.00;;;14.60;94.90;;;;;;4979633;28;20294;-92
2022/10/20 10:59:06;;;;;;;3.57;2.07;;;14.70;95.20;;;;;;5002001;28;20233;-91
2022/10/20 11:02:05;;;;;;;4.33;1.70;;;14.90;97.20;;;;;;4979557;28;20767;-92
2022/10/20 11:05:06;;;;;;;3.57;2.43;;;15.00;95.90;;;;;;4995042;28;20229;-92
2022/10/20 11:07:40;;;;;;;4.33;2.20;;;15.00;95.00;;;;;;4980465;28;20320;-92
2022/10/20 11:10:13;;;;;;;2.70;2.10;;;15.00;95.30;;;;;;4985616;28;20233;-91
2022/10/20 11:12:53;;;;;;;3.93;2.00;;;15.00;95.40;;;;;;4982609;28;20234;-91
2022/10/20 11:15:33;;;;;;;2.43;2.00;;;14.90;94.50;;;;;;4997431;28;20230;-91
2022/10/20 11:18:11;;;;;;;4.07;2.27;;;14.70;95.60;;;;;;4985024;28;20259;-91
2022/10/20 11:20:45;;;;;;;3.43;2.10;;;14.60;95.80;;;;;;5004413;28;20236;-91
2022/10/20 11:23:49;;;;;;;4.67;2.50;;;14.60;96.10;;;;;;4989835;28;20755;-91
2022/10/20 11:26:23;;;;;;;5.23;2.50;;;14.40;95.00;;;;;;4991252;28;20215;-92
2022/10/20 11:28:52;;;;;;;5.97;2.20;;;14.40;95.70;;;;;;5007140;28;20230;-91
2022/10/20 11:31:24;;;;;;;4.13;2.27;;;14.50;96.50;;;;;;4984083;28;20282;-93
2022/10/20 11:33:56;;;;;;;3.77;2.10;;;14.50;95.70;;;;;;4995312;28;20318;-92
2022/10/20 11:36:25;;;;;;;2.83;1.97;;;14.60;96.40;;;;;;4989082;28;20236;-92
2022/10/20 11:38:55;;;;;;;3.13;2.10;;;14.60;96.60;;;;;;4991108;28;20327;-91
2022/10/20 11:41:27;;;;;;;2.47;2.10;;;14.70;97.20;;;;;;4994187;28;20224;-92
2022/10/20 11:44:01;;;;;;;3.13;2.63;;;14.80;96.70;;;;;;4998950;28;20229;-91
2022/10/20 11:46:36;;;;;;;4.87;2.70;;;14.90;96.50;;;;;;4996547;28;20248;-91
2022/10/20 11:49:04;;;;;;;3.10;2.43;;;15.00;96.20;;;;;;4992841;28;20719;-92
2022/10/20 11:52:12;;;;;;;7.57;2.90;;;15.00;96.50;;;;;;4985077;28;20241;-91
2022/10/20 11:54:59;;;;;;;3.70;2.77;;;15.00;95.30;;;;;;4977051;28;20574;-91
2022/10/20 11:57:37;;;;;;;6.33;2.43;;;15.10;96.40;;;;;;4992336;28;20315;-90
2022/10/20 12:00:21;;;;;;;3.17;2.70;;;15.20;96.50;;;;;;4988503;28;20233;-91
2022/10/20 12:03:27;;;;;;;5.83;2.60;;;15.20;95.90;;;;;;4995573;28;20226;-94
2022/10/20 12:06:16;;;;;;;4.27;2.90;;;15.20;95.30;;;;;;4981782;28;20227;-91
2022/10/20 12:09:06;;;;;;;4.13;2.67;;;15.20;95.10;;;;;;4987894;28;20233;-91
2022/10/20 12:11:41;;;;;;;3.83;2.50;;;15.20;95.90;;;;;;4983944;28;20233;-92
2022/10/20 12:14:19;;;;;;;4.10;2.80;;;15.20;95.90;;;;;;4990898;28;20243;-91
2022/10/20 12:17:12;;;;;;;3.43;3.00;;;15.20;96.20;;;;;;4985059;28;20229;-91
2022/10/20 12:19:39;;;;;;;4.53;3.00;;;15.10;95.70;;;;;;4985568;28;20921;-92
2022/10/20 12:22:38;;;;;;;4.30;3.20;;;15.00;95.90;;;;;;4984409;28;20224;-92
2022/10/20 12:25:34;;;;;;;3.07;2.43;;;15.00;96.00;;;;;;4976286;28;20225;-91
2022/10/20 12:28:39;;;;;;;3.93;2.80;;;15.00;96.60;;;;;;4991799;28;20234;-91
2022/10/20 12:31:06;;;;;;;5.07;3.13;;;15.10;96.50;;;;;;4982119;28;20223;-91
2022/10/20 12:33:40;;;;;;;4.47;2.90;;;15.10;96.90;;;;;;4979671;28;20683;-93
2022/10/20 12:36:26;;;;;;;4.33;3.13;;;15.20;97.00;;;;;;4991808;28;20239;-93
2022/10/20 12:39:06;;;;;;;4.53;3.17;;;15.20;95.90;;;;;;4983725;28;20317;-91
2022/10/20 12:41:39;;;;;;;5.20;3.00;;;15.20;95.70;;;;;;4982466;28;20236;-92
2022/10/20 12:44:15;;;;;;;4.40;3.33;;;15.20;96.20;;;;;;4994248;28;20683;-91
2022/10/20 12:46:44;;;;;;;4.67;3.57;;;15.10;95.90;;;;;;5007655;28;20226;-91
2022/10/20 12:49:24;;;;;;;5.23;2.70;;;15.00;96.30;;;;;;4987644;28;20228;-91
2022/10/20 12:51:52;;;;;;;4.67;2.50;;;14.90;96.50;;;;;;4978578;28;20889;-92
2022/10/20 12:54:28;;;;;;;6.17;3.53;;;14.80;96.80;;;;;;4988636;28;20708;-91
2022/10/20 12:56:58;;;;;;;3.93;3.10;;;14.80;96.50;;;;;;4996747;28;20311;-92
2022/10/20 12:59:47;;;;;;;6.03;3.30;;;14.80;96.10;;;;;;4993511;28;20235;-91
2022/10/20 13:02:32;;;;;;;4.30;2.93;;;14.80;96.10;;;;;;4995826;28;20656;-91
2022/10/20 13:05:01;;;;;;;3.63;2.83;;;14.90;95.60;;;;;;4977669;28;20253;-94
2022/10/20 13:08:06;;;;;;;6.00;2.70;;;14.90;96.30;;;;;;4983070;28;20243;-91
2022/10/20 13:10:35;;;;;;;4.73;2.77;;;14.90;95.90;;;;;;4995731;28;20231;-91
2022/10/20 13:13:49;;;;;;;4.37;2.63;;;15.00;96.50;;;;;;4998668;28;20605;-91
2022/10/20 13:16:20;;;;;;;4.07;2.53;;;15.00;95.80;;;;;;4972421;28;20236;-91
2022/10/20 13:18:52;;;;;;;3.57;2.30;;;15.00;95.10;;;;;;4997113;28;20728;-92